createdAt,value
2017-10-10T00:01:19.311Z,6.87
2017-10-10T00:04:01.256Z,8.27
2017-10-10T00:06:51.858Z,10.10
2017-10-10T00:09:20.922Z,16.60
2017-10-10T00:11:57.283Z,6.77
2017-10-10T00:14:24.371Z,11.30
2017-10-10T00:17:05.935Z,6.73
2017-10-10T00:19:43.606Z,5.60
2017-10-10T00:22:24.032Z,6.53
2017-10-10T00:24:53.887Z,8.87
2017-10-10T00:27:28.821Z,15.93
2017-10-10T00:29:54.753Z,9.80
2017-10-10T00:32:31.926Z,11.80
2017-10-10T00:35:15.471Z,7.60
2017-10-10T00:37:46.180Z,7.53
2017-10-10T00:40:19.614Z,6.67
2017-10-10T00:42:59.130Z,10.60
2017-10-10T00:45:29.794Z,7.37
2017-10-10T00:48:08.291Z,9.80
2017-10-10T00:50:36.463Z,6.90
2017-10-10T00:53:12.631Z,7.80
2017-10-10T00:55:53.085Z,6.20
2017-10-10T00:58:23.582Z,15.33
2017-10-10T01:00:57.003Z,14.07
2017-10-10T01:03:36.570Z,6.60
2017-10-10T01:06:06.362Z,5.87
2017-10-10T01:08:44.658Z,5.60
2017-10-10T01:11:17.243Z,5.93
2017-10-10T01:13:43.234Z,6.87
2017-10-10T01:16:09.288Z,6.37
2017-10-10T01:18:54.103Z,6.47
2017-10-10T01:21:34.570Z,6.77
2017-10-10T01:24:00.622Z,6.67
2017-10-10T01:26:41.222Z,6.73
2017-10-10T01:29:20.055Z,10.90
2017-10-10T01:31:56.294Z,6.47
2017-10-10T01:34:23.343Z,12.60
2017-10-10T01:36:53.334Z,7.63
2017-10-10T01:39:34.866Z,7.33
2017-10-10T01:42:13.378Z,8.60
2017-10-10T01:44:43.776Z,8.60
2017-10-10T01:47:14.343Z,6.37
2017-10-10T01:49:54.008Z,6.23
2017-10-10T01:52:30.429Z,7.90
2017-10-10T01:55:01.858Z,11.70
2017-10-10T01:57:28.534Z,7.47
2017-10-10T01:59:57.916Z,5.67
2017-10-10T02:02:25.690Z,10.10
2017-10-10T02:05:00.636Z,6.83
2017-10-10T02:07:34.006Z,7.30
2017-10-10T02:10:02.158Z,8.00
2017-10-10T02:12:32.001Z,7.70
2017-10-10T02:14:58.976Z,8.13
2017-10-10T02:17:43.040Z,13.03
2017-10-10T02:20:19.706Z,11.63
2017-10-10T02:22:56.446Z,7.60
2017-10-10T02:25:29.919Z,11.23
2017-10-10T02:27:55.982Z,9.10
2017-10-10T02:30:26.702Z,8.80
2017-10-10T02:33:00.026Z,9.10
2017-10-10T02:35:39.720Z,11.13
2017-10-10T02:41:15.970Z,17.50
2017-10-10T02:43:49.636Z,14.30
2017-10-10T02:46:23.974Z,9.30
2017-10-10T02:48:56.503Z,13.47
2017-10-10T02:51:30.102Z,11.33
2017-10-10T02:54:21.603Z,9.20
2017-10-10T02:56:47.646Z,17.20
2017-10-10T02:59:29.584Z,12.30
2017-10-10T03:02:06.372Z,15.30
2017-10-10T03:04:38.719Z,11.43
2017-10-10T03:07:08.198Z,10.27
2017-10-10T03:09:44.779Z,11.43
2017-10-10T03:12:24.338Z,11.33
2017-10-10T03:14:56.930Z,18.13
2017-10-10T03:17:30.734Z,11.03
2017-10-10T03:20:05.341Z,16.33
2017-10-10T03:22:39.747Z,13.70
2017-10-10T03:25:15.107Z,12.20
2017-10-10T03:27:49.649Z,21.77
2017-10-10T03:30:24.047Z,15.90
2017-10-10T03:32:58.591Z,14.03
2017-10-10T03:35:30.955Z,14.80
2017-10-10T03:37:56.911Z,13.53
2017-10-10T03:40:42.262Z,15.13
2017-10-10T03:43:16.003Z,12.83
2017-10-10T03:45:52.615Z,16.20
2017-10-10T03:48:25.662Z,13.60
2017-10-10T03:50:57.909Z,14.03
2017-10-10T03:53:27.491Z,15.63
2017-10-10T03:56:06.833Z,14.73
2017-10-10T03:58:43.290Z,14.50
2017-10-10T04:01:11.027Z,26.10
2017-10-10T04:03:51.480Z,22.77
2017-10-10T04:06:17.521Z,15.13
2017-10-10T04:08:51.574Z,24.07
2017-10-10T04:11:17.506Z,17.93
2017-10-10T04:13:57.586Z,25.80
2017-10-10T04:16:31.068Z,28.10
2017-10-10T04:19:07.400Z,20.57
2017-10-10T04:21:58.764Z,17.80
2017-10-10T04:24:35.366Z,17.93
2017-10-10T04:27:14.911Z,21.43
2017-10-10T04:35:44.857Z,19.73
2017-10-10T04:41:09.093Z,20.53
2017-10-10T04:43:41.606Z,17.90
2017-10-10T04:46:19.182Z,20.43
2017-10-10T04:48:56.669Z,30.53
2017-10-10T04:54:16.699Z,19.37
2017-10-10T04:57:03.968Z,44.73
2017-10-10T04:59:37.893Z,17.23
2017-10-10T05:02:16.226Z,17.40
2017-10-10T05:04:51.555Z,23.03
2017-10-10T05:07:20.342Z,25.93
2017-10-10T05:12:43.605Z,17.87
2017-10-10T05:15:20.425Z,19.07
2017-10-10T05:17:56.979Z,19.20
2017-10-10T05:20:33.443Z,19.90
2017-10-10T05:23:10.425Z,32.83
2017-10-10T05:26:03.010Z,25.60
2017-10-10T05:28:32.945Z,20.30
2017-10-10T05:30:58.870Z,22.00
2017-10-10T05:33:38.058Z,19.90
2017-10-10T05:36:11.720Z,24.00
2017-10-10T05:38:41.677Z,26.60
2017-10-10T05:44:04.099Z,23.57
2017-10-10T05:46:53.330Z,21.27
2017-10-10T05:49:19.380Z,20.87
2017-10-10T05:52:01.167Z,21.57
2017-10-10T05:54:36.371Z,27.60
2017-10-10T05:57:08.499Z,26.07
2017-10-10T05:59:43.009Z,25.27
2017-10-10T06:02:20.894Z,23.70
2017-10-10T06:04:57.732Z,20.57
2017-10-10T06:07:31.599Z,19.37
2017-10-10T06:10:08.175Z,18.60
2017-10-10T06:12:44.842Z,25.70
2017-10-10T06:15:22.333Z,20.07
2017-10-10T06:17:53.986Z,22.20
2017-10-10T06:20:28.612Z,27.60
2017-10-10T06:23:20.495Z,26.10
2017-10-10T06:25:46.556Z,26.00
2017-10-10T06:28:27.782Z,25.07
2017-10-10T06:31:04.414Z,24.20
2017-10-10T06:33:41.007Z,23.20
2017-10-10T06:36:14.594Z,27.67
2017-10-10T06:38:44.406Z,27.90
2017-10-10T06:41:17.810Z,28.50
2017-10-10T06:44:09.567Z,31.37
2017-10-10T06:46:39.206Z,25.23
2017-10-10T06:49:10.878Z,33.00
2017-10-10T06:51:44.690Z,30.53
2017-10-10T06:54:13.515Z,35.70
2017-10-10T06:57:04.330Z,29.73
2017-10-10T06:59:31.301Z,29.23
2017-10-10T07:02:24.638Z,30.47
2017-10-10T07:04:50.735Z,32.90
2017-10-10T07:07:41.247Z,40.83
2017-10-10T07:10:14.292Z,36.57
2017-10-10T07:12:42.224Z,33.30
2017-10-10T07:15:27.055Z,32.53
2017-10-10T07:18:03.727Z,44.20
2017-10-10T07:20:42.058Z,31.80
2017-10-10T07:23:12.681Z,36.10
2017-10-10T07:25:38.611Z,37.37
2017-10-10T07:28:09.239Z,34.80
2017-10-10T07:30:45.754Z,33.40
2017-10-10T07:33:25.110Z,30.77
2017-10-10T07:35:57.672Z,34.90
2017-10-10T07:38:24.374Z,33.37
2017-10-10T07:41:00.662Z,32.33
2017-10-10T07:43:35.210Z,29.00
2017-10-10T07:48:58.430Z,44.97
2017-10-10T07:54:31.251Z,31.73
2017-10-10T07:57:04.771Z,33.30
2017-10-10T07:59:37.266Z,29.87
2017-10-10T08:02:07.630Z,35.73
2017-10-10T08:04:33.703Z,40.43
2017-10-10T08:07:03.831Z,38.60
2017-10-10T08:09:29.815Z,32.53
2017-10-10T08:11:57.859Z,34.97
2017-10-10T08:14:23.788Z,30.10
2017-10-10T08:16:54.919Z,35.93
2017-10-10T08:19:27.287Z,33.00
2017-10-10T08:24:51.877Z,27.70
2017-10-10T08:27:28.361Z,30.43
2017-10-10T08:30:12.718Z,35.73
2017-10-10T08:32:49.382Z,34.03
2017-10-10T08:35:37.048Z,33.23
2017-10-10T08:38:16.651Z,29.00
2017-10-10T08:40:42.599Z,32.40
2017-10-10T08:43:08.575Z,28.33
2017-10-10T08:45:34.510Z,28.57
2017-10-10T08:48:01.170Z,26.33
2017-10-10T08:50:27.078Z,27.83
2017-10-10T08:52:53.748Z,25.20
2017-10-10T08:55:19.688Z,26.40
2017-10-10T08:57:45.764Z,26.90
2017-10-10T09:00:16.496Z,28.97
2017-10-10T09:02:43.286Z,25.87
2017-10-10T09:05:09.194Z,25.47
2017-10-10T09:07:35.139Z,31.97
2017-10-10T09:10:01.040Z,27.43
2017-10-10T09:12:26.978Z,28.20
2017-10-10T09:14:52.931Z,35.43
2017-10-10T09:17:22.199Z,28.53
2017-10-10T09:19:52.617Z,19.67
2017-10-10T09:22:19.284Z,23.90
2017-10-10T09:24:45.234Z,26.40
2017-10-10T09:27:11.171Z,25.80
2017-10-10T09:29:37.134Z,36.43
2017-10-10T09:32:03.065Z,22.97
2017-10-10T09:34:29.019Z,27.57
2017-10-10T09:36:54.943Z,36.90
2017-10-10T09:39:28.050Z,29.23
2017-10-10T09:41:53.970Z,24.60
2017-10-10T09:44:19.890Z,26.30
2017-10-10T09:46:45.825Z,24.83
2017-10-10T09:49:11.745Z,25.03
2017-10-10T09:51:37.677Z,20.10
2017-10-10T09:54:03.594Z,22.37
2017-10-10T09:56:30.257Z,22.37
2017-10-10T09:58:56.203Z,20.53
2017-10-10T10:01:22.156Z,24.77
2017-10-10T10:03:48.070Z,24.03
2017-10-10T10:06:18.048Z,31.40
2017-10-10T10:08:44.617Z,23.03
2017-10-10T10:14:03.945Z,20.00
2017-10-10T10:16:52.258Z,21.10
2017-10-10T10:19:18.220Z,30.90
2017-10-10T10:21:44.880Z,21.57
2017-10-10T10:24:21.420Z,26.20
2017-10-10T10:26:47.370Z,20.80
2017-10-10T10:29:13.330Z,23.70
2017-10-10T10:31:39.275Z,27.13
2017-10-10T10:34:05.950Z,19.23
2017-10-10T10:36:32.903Z,22.67
2017-10-10T10:39:03.305Z,24.10
2017-10-10T10:41:29.238Z,22.17
2017-10-10T10:43:55.159Z,23.73
2017-10-10T10:46:21.111Z,29.50
2017-10-10T10:48:50.934Z,26.60
2017-10-10T10:51:16.851Z,24.13
2017-10-10T10:53:42.779Z,28.30
2017-10-10T10:56:08.723Z,29.33
2017-10-10T10:58:35.380Z,22.83
2017-10-10T11:01:01.318Z,23.67
2017-10-10T11:03:27.246Z,20.80
2017-10-10T11:05:54.078Z,19.23
2017-10-10T11:08:20.006Z,21.47
2017-10-10T11:10:45.961Z,20.10
2017-10-10T11:13:15.664Z,17.67
2017-10-10T11:15:46.348Z,18.77
2017-10-10T11:18:12.387Z,20.50
2017-10-10T11:20:45.306Z,15.57
2017-10-10T11:23:11.230Z,19.07
2017-10-10T11:25:45.638Z,22.40
2017-10-10T11:28:15.252Z,23.17
2017-10-10T11:30:48.642Z,18.20
2017-10-10T11:33:29.138Z,23.93
2017-10-10T11:36:09.775Z,17.80
2017-10-10T11:38:42.063Z,22.63
2017-10-10T11:41:11.838Z,18.47
2017-10-10T11:43:46.276Z,20.93
2017-10-10T11:46:12.940Z,15.30
2017-10-10T11:48:58.570Z,11.87
2017-10-10T11:57:17.761Z,16.90
2017-10-10T11:59:44.485Z,28.20
2017-10-10T12:02:21.106Z,13.10
2017-10-10T12:04:53.884Z,23.43
2017-10-10T12:07:33.176Z,16.73
2017-10-10T12:09:59.464Z,13.13
2017-10-10T12:12:45.805Z,12.93
2017-10-10T12:18:12.313Z,15.33
2017-10-10T12:20:39.311Z,17.87
2017-10-10T12:23:05.312Z,18.73
2017-10-10T12:25:44.671Z,13.03
2017-10-10T12:28:10.690Z,13.30
2017-10-10T12:30:37.067Z,13.60
2017-10-10T12:33:08.997Z,11.70
2017-10-10T12:35:59.278Z,13.40
2017-10-10T12:38:25.301Z,18.17
2017-10-10T12:40:56.626Z,13.27
2017-10-10T12:43:22.563Z,8.70
2017-10-10T12:46:01.198Z,10.13
2017-10-10T12:48:37.810Z,24.50
2017-10-10T12:51:03.771Z,12.43
2017-10-10T12:53:29.703Z,12.30
2017-10-10T13:01:45.141Z,12.30
2017-10-10T13:04:21.346Z,12.20
2017-10-10T13:06:47.274Z,9.97
2017-10-10T13:09:13.209Z,16.10
2017-10-10T13:11:39.205Z,12.90
2017-10-10T13:14:05.889Z,11.07
2017-10-10T13:16:35.527Z,10.00
2017-10-10T13:19:11.928Z,7.20
2017-10-10T13:21:45.429Z,11.50
2017-10-10T13:24:26.813Z,6.20
2017-10-10T13:26:58.651Z,8.33
2017-10-10T13:29:31.030Z,14.10
2017-10-10T13:32:01.565Z,4.87
2017-10-10T13:34:44.002Z,5.47
2017-10-10T13:40:05.266Z,7.17
2017-10-10T13:42:32.217Z,12.67
2017-10-10T13:44:58.272Z,4.57
2017-10-10T13:47:25.023Z,7.83
2017-10-10T13:49:51.767Z,6.77
2017-10-10T13:52:23.225Z,6.03
2017-10-10T13:55:04.640Z,5.23
2017-10-10T13:57:34.422Z,5.87
2017-10-10T14:00:04.842Z,6.93
2017-10-10T14:02:33.637Z,7.80
2017-10-10T14:07:52.250Z,9.93
2017-10-10T14:10:18.935Z,9.13
2017-10-10T14:12:44.891Z,30.10
2017-10-10T14:18:01.373Z,8.20
2017-10-10T14:20:27.349Z,9.50
2017-10-10T14:22:55.179Z,8.23
2017-10-10T14:25:21.855Z,14.40
2017-10-10T14:27:47.872Z,9.00
2017-10-10T14:30:13.901Z,14.03
2017-10-10T14:32:39.831Z,12.30
2017-10-10T14:35:05.762Z,8.60
2017-10-10T14:37:31.681Z,20.43
2017-10-10T14:40:01.579Z,8.40
2017-10-10T14:42:28.290Z,8.40
2017-10-10T14:44:54.217Z,11.40
2017-10-10T14:47:27.551Z,8.37
2017-10-10T14:49:53.580Z,12.27
2017-10-10T14:52:24.318Z,10.63
2017-10-10T14:55:05.513Z,12.37
2017-10-10T14:57:39.223Z,8.83
2017-10-10T15:00:19.555Z,9.30
2017-10-10T15:02:47.345Z,9.63
2017-10-10T15:05:15.329Z,9.73
2017-10-10T15:07:41.282Z,11.57
2017-10-10T15:10:11.441Z,10.30
2017-10-10T15:12:37.539Z,11.50
2017-10-10T15:15:05.550Z,22.77
2017-10-10T15:17:33.226Z,20.63
2017-10-10T15:20:01.013Z,16.63
2017-10-10T15:22:27.031Z,13.60
2017-10-10T15:25:04.238Z,7.93
2017-10-10T15:27:30.662Z,10.10
2017-10-10T15:30:02.010Z,10.00
2017-10-10T15:32:39.423Z,19.27
2017-10-10T15:35:19.893Z,13.13
2017-10-10T15:37:53.795Z,12.20
2017-10-10T15:40:33.634Z,11.93
2017-10-10T15:43:07.153Z,26.83
2017-10-10T15:45:33.098Z,11.23
2017-10-10T15:48:00.148Z,10.67
2017-10-10T15:50:26.125Z,12.83
2017-10-10T15:52:52.053Z,10.70
2017-10-10T15:55:18.081Z,18.60
2017-10-10T15:57:44.209Z,14.67
2017-10-10T16:00:10.199Z,8.57
2017-10-10T16:02:36.147Z,17.20
2017-10-10T16:05:02.890Z,14.53
2017-10-10T16:07:33.330Z,10.00
2017-10-10T16:10:01.111Z,11.37
2017-10-10T16:12:27.109Z,11.40
2017-10-10T16:14:53.041Z,8.97
2017-10-10T16:17:19.733Z,16.33
2017-10-10T16:19:45.655Z,9.27
2017-10-10T16:22:11.577Z,8.63
2017-10-10T16:24:37.823Z,11.47
2017-10-10T16:27:07.892Z,13.30
2017-10-10T16:29:37.607Z,9.40
2017-10-10T16:32:03.574Z,10.30
2017-10-10T16:34:29.537Z,16.77
2017-10-10T16:36:55.498Z,8.47
2017-10-10T16:39:23.194Z,8.13
2017-10-10T16:41:49.123Z,11.40
2017-10-10T16:44:18.447Z,8.40
2017-10-10T16:46:44.428Z,15.53
2017-10-10T16:49:11.110Z,14.17
2017-10-10T16:51:37.079Z,11.93
2017-10-10T16:54:04.277Z,15.50
2017-10-10T16:56:30.479Z,12.60
2017-10-10T16:58:56.537Z,12.50
2017-10-10T17:01:22.604Z,13.23
2017-10-10T17:03:53.467Z,21.97
2017-10-10T17:06:21.183Z,16.10
2017-10-10T17:08:47.310Z,13.60
2017-10-10T17:11:14.383Z,15.03
2017-10-10T17:13:40.474Z,16.43
2017-10-10T17:16:08.142Z,18.30
2017-10-10T17:18:34.859Z,14.50
2017-10-10T17:21:01.659Z,15.73
2017-10-10T17:23:27.696Z,15.23
2017-10-10T17:25:53.606Z,18.07
2017-10-10T17:28:21.481Z,13.77
2017-10-10T17:30:47.506Z,14.80
2017-10-10T17:33:14.278Z,15.33
2017-10-10T17:35:40.198Z,12.10
2017-10-10T17:38:07.357Z,25.83
2017-10-10T17:40:33.317Z,11.20
2017-10-10T17:42:59.247Z,13.23
2017-10-10T17:45:25.173Z,15.40
2017-10-10T17:47:52.409Z,17.13
2017-10-10T17:50:36.954Z,19.03
2017-10-10T17:56:07.514Z,12.00
2017-10-10T17:58:33.448Z,20.03
2017-10-10T18:01:05.562Z,10.43
2017-10-10T18:03:31.510Z,23.27
2017-10-10T18:05:57.426Z,14.00
2017-10-10T18:08:26.949Z,24.30
2017-10-10T18:10:53.437Z,14.63
2017-10-10T18:13:19.374Z,13.20
2017-10-10T18:15:46.043Z,11.33
2017-10-10T18:18:18.694Z,10.03
2017-10-10T18:20:47.092Z,13.63
2017-10-10T18:26:21.222Z,11.60
2017-10-10T18:28:47.391Z,8.37
2017-10-10T18:34:07.790Z,9.90
2017-10-10T18:36:46.438Z,16.90
2017-10-10T18:39:12.511Z,8.90
2017-10-10T18:44:41.108Z,8.60
2017-10-10T18:47:11.627Z,8.27
2017-10-10T18:49:41.017Z,7.80
2017-10-10T18:52:07.690Z,10.53
2017-10-10T18:54:37.174Z,24.83
2017-10-10T18:57:11.630Z,15.90
2017-10-10T18:59:38.898Z,9.37
2017-10-10T19:02:15.745Z,12.70
2017-10-10T19:04:41.751Z,10.67
2017-10-10T19:07:08.495Z,15.17
2017-10-10T19:09:46.211Z,8.23
2017-10-10T19:12:17.712Z,11.00
2017-10-10T19:14:45.714Z,10.43
2017-10-10T19:17:17.367Z,12.00
2017-10-10T19:19:43.428Z,10.77
2017-10-10T19:22:14.139Z,11.33
2017-10-10T19:24:43.547Z,19.93
2017-10-10T19:27:10.563Z,13.93
2017-10-10T19:29:42.588Z,9.00
2017-10-10T19:32:10.545Z,10.27
2017-10-10T19:34:41.410Z,9.80
2017-10-10T19:37:10.987Z,8.90
2017-10-10T19:39:46.238Z,18.10
2017-10-10T19:42:16.734Z,10.17
2017-10-10T19:44:42.709Z,12.80
2017-10-10T19:47:10.445Z,12.97
2017-10-10T19:49:40.889Z,10.17
2017-10-10T19:52:09.579Z,13.70
2017-10-10T19:54:39.985Z,13.63
2017-10-10T19:57:20.439Z,13.43
2017-10-10T19:59:57.261Z,10.63
2017-10-10T20:02:25.028Z,9.17
2017-10-10T20:08:00.160Z,13.90
2017-10-10T20:10:30.685Z,16.03
2017-10-10T20:12:57.441Z,11.37
2017-10-10T20:15:50.347Z,22.97
2017-10-10T20:18:34.259Z,18.23
2017-10-10T20:21:05.857Z,18.67
2017-10-10T20:23:38.360Z,13.43
2017-10-10T20:26:16.542Z,13.77
2017-10-10T20:28:42.481Z,12.20
2017-10-10T20:31:33.792Z,19.57
2017-10-10T20:34:05.433Z,16.03
2017-10-10T20:39:41.524Z,27.00
2017-10-10T20:42:15.880Z,17.03
2017-10-10T20:44:50.266Z,15.57
2017-10-10T20:47:20.794Z,26.00
2017-10-10T20:49:55.556Z,17.50
2017-10-10T20:52:31.842Z,19.33
2017-10-10T20:55:11.239Z,17.63
2017-10-10T20:57:42.064Z,21.40
2017-10-10T21:03:03.278Z,13.70
2017-10-10T21:05:53.832Z,17.23
2017-10-10T21:08:25.135Z,15.60
2017-10-10T21:11:13.828Z,31.23
2017-10-10T21:13:41.815Z,13.87
2017-10-10T21:16:07.752Z,16.53
2017-10-10T21:18:56.938Z,17.53
2017-10-10T21:21:26.514Z,21.00
2017-10-10T21:23:57.872Z,16.20
2017-10-10T21:26:42.172Z,21.00
2017-10-10T21:29:08.113Z,24.23
2017-10-10T21:31:47.645Z,16.40
2017-10-10T21:34:28.293Z,22.70
2017-10-10T21:37:13.339Z,18.27
2017-10-10T21:39:50.950Z,23.87
2017-10-10T21:42:23.298Z,22.97
2017-10-10T21:45:03.046Z,28.30
2017-10-10T21:47:36.546Z,19.67
2017-10-10T21:50:13.415Z,29.73
2017-10-10T21:52:45.535Z,21.23
2017-10-10T21:55:13.535Z,35.27
2017-10-10T21:57:53.949Z,23.30
2017-10-10T22:00:37.488Z,24.17
2017-10-10T22:03:04.994Z,22.53
2017-10-10T22:05:57.483Z,19.90
2017-10-10T22:08:35.251Z,19.57
2017-10-10T22:11:04.840Z,19.13
2017-10-10T22:13:44.179Z,27.30
2017-10-10T22:16:20.758Z,19.77
2017-10-10T22:18:55.379Z,20.73
2017-10-10T22:21:24.176Z,22.77
2017-10-10T22:24:01.352Z,17.07
2017-10-10T22:26:31.290Z,22.13
2017-10-10T22:28:57.251Z,23.93
2017-10-10T22:31:25.225Z,20.13
2017-10-10T22:34:04.746Z,20.37
2017-10-10T22:36:52.595Z,29.47
2017-10-10T22:39:18.639Z,28.77
2017-10-10T22:47:38.819Z,23.13
2017-10-10T22:50:22.115Z,17.60
2017-10-10T22:52:59.589Z,20.27
2017-10-10T22:55:29.106Z,24.27
2017-10-10T23:00:49.803Z,27.30
2017-10-10T23:03:24.062Z,20.90
2017-10-10T23:05:57.518Z,18.03
2017-10-10T23:08:31.017Z,15.17
2017-10-10T23:11:17.780Z,22.67
2017-10-10T23:13:49.367Z,18.60
2017-10-10T23:16:30.565Z,25.30
2017-10-10T23:19:00.353Z,19.13
2017-10-10T23:21:28.101Z,18.50
2017-10-10T23:24:07.252Z,31.53
2017-10-10T23:26:41.774Z,29.53
2017-10-10T23:29:09.571Z,17.83
2017-10-10T23:31:45.716Z,19.87
2017-10-10T23:34:26.397Z,22.27
2017-10-10T23:36:56.379Z,23.70
2017-10-10T23:42:19.022Z,17.03
2017-10-10T23:44:59.363Z,17.50
2017-10-10T23:47:33.966Z,16.73
2017-10-10T23:50:10.501Z,23.83
2017-10-10T23:52:40.880Z,23.73
2017-10-10T23:55:14.371Z,17.27
2017-10-10T23:57:53.946Z,17.00
